createdAt,value
2022-09-27T00:01:18.061Z,19.04
2022-09-27T00:03:46.536Z,19.05
2022-09-27T00:06:17.371Z,19.07
2022-09-27T00:08:45.741Z,19.09
2022-09-27T00:11:23.847Z,19.09
2022-09-27T00:13:52.215Z,19.11
2022-09-27T00:16:21.997Z,19.12
2022-09-27T00:18:50.693Z,19.13
2022-09-27T00:21:19.315Z,19.14
2022-09-27T00:23:47.675Z,19.13
2022-09-27T00:26:16.105Z,19.13
2022-09-27T00:28:44.474Z,19.13
2022-09-27T00:31:22.513Z,19.09
2022-09-27T00:33:54.099Z,19.08
2022-09-27T00:36:25.790Z,19.06
2022-09-27T00:38:55.777Z,19.04
2022-09-27T00:41:26.540Z,19.00
2022-09-27T00:43:57.204Z,18.98
2022-09-27T00:46:34.876Z,18.93
2022-09-27T00:49:10.575Z,18.91
2022-09-27T00:51:42.234Z,18.86
2022-09-27T00:54:14.234Z,18.86
2022-09-27T00:56:44.702Z,18.84
2022-09-27T00:59:20.726Z,18.80
2022-09-27T01:01:51.551Z,18.79
2022-09-27T01:04:25.690Z,18.77
2022-09-27T01:06:54.790Z,18.76
2022-09-27T01:09:25.849Z,18.74
2022-09-27T01:12:04.866Z,18.71
2022-09-27T01:14:50.145Z,18.70
2022-09-27T01:17:39.592Z,18.68
2022-09-27T01:21:01.981Z,18.64
2022-09-27T01:24:01.297Z,18.62
2022-09-27T01:27:10.305Z,18.59
2022-09-27T01:29:51.306Z,18.58
2022-09-27T01:32:30.316Z,18.57
2022-09-27T01:35:07.202Z,18.54
2022-09-27T01:37:44.313Z,18.53
2022-09-27T01:40:25.483Z,18.48
2022-09-27T01:43:01.684Z,18.48
2022-09-27T01:45:36.277Z,18.47
2022-09-27T01:48:12.059Z,18.44
2022-09-27T01:50:47.201Z,18.43
2022-09-27T01:53:22.996Z,18.41
2022-09-27T01:55:55.328Z,18.42
2022-09-27T01:58:31.912Z,18.42
2022-09-27T02:01:02.109Z,18.42
2022-09-27T02:03:36.631Z,18.41
2022-09-27T02:06:13.925Z,18.40
2022-09-27T02:08:48.348Z,18.41
2022-09-27T02:11:17.003Z,18.41
2022-09-27T02:13:53.654Z,18.38
2022-09-27T02:16:30.546Z,18.38
2022-09-27T02:19:10.160Z,18.34
2022-09-27T02:21:51.393Z,18.34
2022-09-27T02:24:28.134Z,18.32
2022-09-27T02:27:07.263Z,18.31
2022-09-27T02:29:42.360Z,18.31
2022-09-27T02:32:10.711Z,18.35
2022-09-27T02:34:41.738Z,18.39
2022-09-27T02:37:10.225Z,18.45
2022-09-27T02:39:39.054Z,18.49
2022-09-27T02:42:08.217Z,18.53
2022-09-27T02:44:36.967Z,18.56
2022-09-27T02:47:29.951Z,18.57
2022-09-27T02:50:26.224Z,18.53
2022-09-27T02:53:08.121Z,18.54
2022-09-27T02:55:50.850Z,18.49
2022-09-27T02:58:31.938Z,18.47
2022-09-27T03:01:09.461Z,18.41
2022-09-27T03:03:45.218Z,18.39
2022-09-27T03:06:18.131Z,18.35
2022-09-27T03:08:47.706Z,18.32
2022-09-27T03:11:16.167Z,18.29
2022-09-27T03:14:07.345Z,18.26
2022-09-27T03:16:33.938Z,18.24
2022-09-27T03:19:02.342Z,18.23
2022-09-27T03:21:32.046Z,18.23
2022-09-27T03:24:00.393Z,18.25
2022-09-27T03:26:28.762Z,18.27
2022-09-27T03:28:57.507Z,18.27
2022-09-27T03:31:25.970Z,18.27
2022-09-27T03:33:54.318Z,18.26
2022-09-27T03:36:22.723Z,18.25
2022-09-27T03:38:52.406Z,18.21
2022-09-27T03:41:20.765Z,18.19
2022-09-27T03:43:49.127Z,18.15
2022-09-27T03:46:17.544Z,18.13
2022-09-27T03:48:46.081Z,18.11
2022-09-27T03:51:14.415Z,18.11
2022-09-27T03:53:42.939Z,18.14
2022-09-27T03:56:12.762Z,18.16
2022-09-27T03:58:41.075Z,18.19
2022-09-27T04:01:09.954Z,18.25
2022-09-27T04:03:38.569Z,18.30
2022-09-27T04:06:07.739Z,18.35
2022-09-27T04:08:36.553Z,18.40
2022-09-27T04:11:05.003Z,18.43
2022-09-27T04:13:34.663Z,18.44
2022-09-27T04:16:04.039Z,18.48
2022-09-27T04:18:32.425Z,18.53
2022-09-27T04:21:00.894Z,18.57
2022-09-27T04:23:30.314Z,18.62
2022-09-27T04:25:58.868Z,18.64
2022-09-27T04:28:28.107Z,18.68
2022-09-27T04:30:58.010Z,18.70
2022-09-27T04:33:26.506Z,18.72
2022-09-27T04:36:12.345Z,18.74
2022-09-27T04:38:40.739Z,18.74
2022-09-27T04:41:09.532Z,18.74
2022-09-27T04:43:38.010Z,18.72
2022-09-27T04:46:07.954Z,18.72
2022-09-27T04:48:37.373Z,18.76
2022-09-27T04:51:06.001Z,18.79
2022-09-27T04:53:34.669Z,18.80
2022-09-27T04:56:06.159Z,18.82
2022-09-27T04:58:35.738Z,18.84
2022-09-27T05:01:04.818Z,18.86
2022-09-27T05:03:34.890Z,18.89
2022-09-27T05:06:03.406Z,18.87
2022-09-27T05:08:31.844Z,18.83
2022-09-27T05:11:01.385Z,18.76
2022-09-27T05:13:29.722Z,18.72
2022-09-27T05:16:05.072Z,18.67
2022-09-27T05:18:34.820Z,18.66
2022-09-27T05:21:03.126Z,18.65
2022-09-27T05:23:31.700Z,18.66
2022-09-27T05:26:00.040Z,18.68
2022-09-27T05:28:28.380Z,18.71
2022-09-27T05:30:56.843Z,18.75
2022-09-27T05:33:25.309Z,18.78
2022-09-27T05:35:56.990Z,18.77
2022-09-27T05:38:26.346Z,18.83
2022-09-27T05:40:54.876Z,18.87
2022-09-27T05:43:24.076Z,18.93
2022-09-27T05:45:53.216Z,18.99
2022-09-27T05:48:22.266Z,19.04
2022-09-27T05:50:50.628Z,19.12
2022-09-27T05:53:20.345Z,19.16
2022-09-27T05:55:48.741Z,19.22
2022-09-27T05:58:17.213Z,19.28
2022-09-27T06:00:45.713Z,19.36
2022-09-27T06:03:15.197Z,19.42
2022-09-27T06:05:45.998Z,19.47
2022-09-27T06:08:16.444Z,19.52
2022-09-27T06:10:46.468Z,19.59
2022-09-27T06:13:17.839Z,19.63
2022-09-27T06:15:47.830Z,19.67
2022-09-27T06:18:18.351Z,19.73
2022-09-27T06:20:47.283Z,19.76
2022-09-27T06:23:17.632Z,19.79
2022-09-27T06:25:48.078Z,19.80
2022-09-27T06:28:17.757Z,19.84
2022-09-27T06:30:48.023Z,19.88
2022-09-27T06:33:19.677Z,19.91
2022-09-27T06:35:50.122Z,19.97
2022-09-27T06:38:20.082Z,20.01
2022-09-27T06:40:50.970Z,20.08
2022-09-27T06:43:21.803Z,20.15
2022-09-27T06:45:50.555Z,20.24
2022-09-27T06:48:19.220Z,20.33
2022-09-27T06:50:49.235Z,20.41
2022-09-27T06:53:18.911Z,20.47
2022-09-27T06:55:47.267Z,20.53
2022-09-27T06:58:34.470Z,20.56
2022-09-27T07:01:03.299Z,20.58
2022-09-27T07:03:37.672Z,20.60
2022-09-27T07:06:17.037Z,20.64
2022-09-27T07:08:45.553Z,20.64
2022-09-27T07:11:15.597Z,20.64
2022-09-27T07:13:45.500Z,20.67
2022-09-27T07:16:14.538Z,20.70
2022-09-27T07:18:43.881Z,20.77
2022-09-27T07:21:12.711Z,20.81
2022-09-27T07:23:41.223Z,20.87
2022-09-27T07:26:11.358Z,20.90
2022-09-27T07:28:41.617Z,20.91
2022-09-27T07:31:11.911Z,20.85
2022-09-27T07:33:43.196Z,20.82
2022-09-27T07:36:13.587Z,20.75
2022-09-27T07:38:41.956Z,20.71
2022-09-27T07:41:14.262Z,20.67
2022-09-27T07:43:44.204Z,20.65
2022-09-27T07:46:14.772Z,20.60
2022-09-27T07:48:43.239Z,20.58
2022-09-27T07:51:12.194Z,20.60
2022-09-27T07:53:41.353Z,20.56
2022-09-27T07:56:09.896Z,20.52
2022-09-27T07:58:38.232Z,20.48
2022-09-27T08:01:07.401Z,20.44
2022-09-27T08:03:38.016Z,20.39
2022-09-27T08:06:06.657Z,20.34
2022-09-27T08:08:35.056Z,20.26
2022-09-27T08:11:12.219Z,20.17
2022-09-27T08:13:40.524Z,20.04
2022-09-27T08:16:09.028Z,19.94
2022-09-27T08:18:38.959Z,19.82
2022-09-27T08:21:07.612Z,19.72
2022-09-27T08:23:37.006Z,19.60
2022-09-27T08:26:05.423Z,19.47
2022-09-27T08:28:33.825Z,19.35
2022-09-27T08:31:02.528Z,19.19
2022-09-27T08:33:33.027Z,19.04
2022-09-27T08:36:04.290Z,18.86
2022-09-27T08:38:32.690Z,18.74
2022-09-27T08:41:09.168Z,18.58
2022-09-27T08:43:48.692Z,18.42
2022-09-27T08:46:34.305Z,18.30
2022-09-27T08:49:11.876Z,18.23
2022-09-27T08:51:43.484Z,18.16
2022-09-27T08:54:20.254Z,18.09
2022-09-27T08:56:49.388Z,18.08
2022-09-27T08:59:22.012Z,18.06
2022-09-27T09:01:51.505Z,18.07
2022-09-27T09:04:29.941Z,18.08
2022-09-27T09:07:14.911Z,18.11
2022-09-27T09:09:56.813Z,18.20
2022-09-27T09:12:47.838Z,18.32
2022-09-27T09:15:26.753Z,18.43
2022-09-27T09:18:16.382Z,18.54
2022-09-27T09:20:58.627Z,18.61
2022-09-27T09:24:06.695Z,18.70
2022-09-27T09:26:42.108Z,18.77
2022-09-27T09:29:37.148Z,18.76
2022-09-27T09:32:21.293Z,18.76
2022-09-27T09:34:55.846Z,18.72
2022-09-27T09:37:35.479Z,18.66
2022-09-27T09:40:18.607Z,18.57
2022-09-27T09:42:53.441Z,18.50
2022-09-27T09:45:27.551Z,18.48
2022-09-27T09:48:04.148Z,18.46
2022-09-27T09:50:43.515Z,18.45
2022-09-27T09:53:17.515Z,18.48
2022-09-27T09:55:53.892Z,18.52
2022-09-27T09:58:27.612Z,18.57
2022-09-27T10:01:01.990Z,18.66
2022-09-27T10:03:30.432Z,18.82
2022-09-27T10:05:58.917Z,18.98
2022-09-27T10:08:27.368Z,19.15
2022-09-27T10:10:57.274Z,19.31
2022-09-27T10:13:25.843Z,19.46
2022-09-27T10:16:03.935Z,19.58
2022-09-27T10:18:33.510Z,19.78
2022-09-27T10:21:07.203Z,19.98
2022-09-27T10:23:35.645Z,20.22
2022-09-27T10:26:07.622Z,20.41
2022-09-27T10:28:38.699Z,20.55
2022-09-27T10:31:10.677Z,20.65
2022-09-27T10:33:53.061Z,20.75
2022-09-27T10:36:26.547Z,20.82
2022-09-27T10:38:57.684Z,20.83
2022-09-27T10:41:34.533Z,20.92
2022-09-27T10:44:27.286Z,21.10
2022-09-27T10:46:59.553Z,21.28
2022-09-27T10:49:33.648Z,21.52
2022-09-27T10:52:04.881Z,21.76
2022-09-27T10:54:37.243Z,21.87
2022-09-27T10:57:19.323Z,21.92
2022-09-27T10:59:53.806Z,21.91
2022-09-27T11:02:25.613Z,21.83
2022-09-27T11:05:15.700Z,21.71
2022-09-27T11:07:52.897Z,21.52
2022-09-27T11:10:28.898Z,21.43
2022-09-27T11:13:13.057Z,21.36
2022-09-27T11:15:56.838Z,21.31
2022-09-27T11:18:37.419Z,21.28
2022-09-27T11:21:16.376Z,21.27
2022-09-27T11:24:09.429Z,21.30
2022-09-27T11:26:51.618Z,21.36
2022-09-27T11:29:31.772Z,21.41
2022-09-27T11:32:21.110Z,21.45
2022-09-27T11:35:07.103Z,21.47
2022-09-27T11:37:48.643Z,21.41
2022-09-27T11:40:35.678Z,21.37
2022-09-27T11:43:23.675Z,21.33
2022-09-27T11:46:18.179Z,21.29
2022-09-27T11:49:22.029Z,21.25
2022-09-27T11:52:21.774Z,21.24
2022-09-27T11:55:18.112Z,21.20
2022-09-27T11:57:57.898Z,21.20
2022-09-27T12:00:35.237Z,21.24
2022-09-27T12:04:01.331Z,21.16
2022-09-27T12:06:44.377Z,21.11
2022-09-27T12:09:19.703Z,21.13
2022-09-27T12:11:52.670Z,21.10
2022-09-27T12:14:30.822Z,21.02
2022-09-27T12:17:00.171Z,21.06
2022-09-27T12:19:34.062Z,21.09
2022-09-27T12:22:06.861Z,21.17
2022-09-27T12:24:36.104Z,21.29
2022-09-27T12:27:11.661Z,21.32
2022-09-27T12:29:43.580Z,21.36
2022-09-27T12:32:17.922Z,21.44
2022-09-27T12:34:56.031Z,21.52
2022-09-27T12:37:29.933Z,21.58
2022-09-27T12:40:04.623Z,21.63
2022-09-27T12:42:38.614Z,21.67
2022-09-27T12:45:13.079Z,21.65
2022-09-27T12:48:00.033Z,21.60
2022-09-27T12:50:37.730Z,21.59
2022-09-27T12:53:15.126Z,21.54
2022-09-27T12:56:30.985Z,21.43
2022-09-27T12:59:26.694Z,21.37
2022-09-27T13:03:03.869Z,21.26
2022-09-27T13:06:11.318Z,21.13
2022-09-27T13:09:02.727Z,21.06
2022-09-27T13:11:47.485Z,20.99
2022-09-27T13:14:21.589Z,20.93
2022-09-27T13:16:51.480Z,20.92
2022-09-27T13:19:44.192Z,20.83
2022-09-27T13:22:39.390Z,20.73
2022-09-27T13:25:55.569Z,20.61
2022-09-27T13:28:38.246Z,20.52
2022-09-27T13:31:10.924Z,20.46
2022-09-27T13:33:47.554Z,20.41
2022-09-27T13:36:33.035Z,20.36
2022-09-27T13:39:22.525Z,20.35
2022-09-27T13:42:11.102Z,20.34
2022-09-27T13:44:54.758Z,20.38
2022-09-27T13:47:32.460Z,20.43
2022-09-27T13:50:18.133Z,20.46
2022-09-27T13:53:04.226Z,20.47
2022-09-27T13:55:47.080Z,20.45
2022-09-27T13:58:45.530Z,20.46
2022-09-27T14:01:24.708Z,20.50
2022-09-27T14:03:55.972Z,20.57
2022-09-27T14:06:30.232Z,20.62
2022-09-27T14:09:03.798Z,20.69
2022-09-27T14:11:38.958Z,20.72
2022-09-27T14:14:15.308Z,20.75
2022-09-27T14:16:47.717Z,20.73
2022-09-27T14:19:20.668Z,20.65
2022-09-27T14:21:50.342Z,20.57
2022-09-27T14:24:29.880Z,20.48
2022-09-27T14:27:25.438Z,20.40
2022-09-27T14:29:56.778Z,20.37
2022-09-27T14:32:27.118Z,20.32
2022-09-27T14:35:28.823Z,20.25
2022-09-27T14:37:57.422Z,20.23
2022-09-27T14:40:26.167Z,20.22
2022-09-27T14:42:59.511Z,20.18
2022-09-27T14:45:37.647Z,20.10
2022-09-27T14:48:22.377Z,20.02
2022-09-27T14:51:04.785Z,19.98
2022-09-27T14:53:37.022Z,19.98
2022-09-27T14:56:08.151Z,20.01
2022-09-27T14:58:47.656Z,20.04
2022-09-27T15:01:18.187Z,20.09
2022-09-27T15:03:48.992Z,20.11
2022-09-27T15:06:18.462Z,20.09
2022-09-27T15:08:49.656Z,20.06
2022-09-27T15:11:19.471Z,20.06
2022-09-27T15:13:55.106Z,20.06
2022-09-27T15:16:25.493Z,20.06
2022-09-27T15:19:03.767Z,20.00
2022-09-27T15:21:34.878Z,19.97
2022-09-27T15:24:04.346Z,19.95
2022-09-27T15:26:41.192Z,19.89
2022-09-27T15:29:20.895Z,19.88
2022-09-27T15:32:00.831Z,19.89
2022-09-27T15:34:30.141Z,19.90
2022-09-27T15:37:00.848Z,19.93
2022-09-27T15:39:33.725Z,19.95
2022-09-27T15:42:09.000Z,19.95
2022-09-27T15:44:47.903Z,19.95
2022-09-27T15:47:51.415Z,19.94
2022-09-27T15:50:35.943Z,19.94
2022-09-27T15:53:06.963Z,19.93
2022-09-27T15:55:41.486Z,19.86
2022-09-27T15:58:16.926Z,19.79
2022-09-27T16:00:58.654Z,19.71
2022-09-27T16:03:28.312Z,19.69
2022-09-27T16:05:58.180Z,19.60
2022-09-27T16:08:28.149Z,19.55
2022-09-27T16:10:58.979Z,19.48
2022-09-27T16:13:32.685Z,19.41
2022-09-27T16:16:04.257Z,19.33
2022-09-27T16:18:32.896Z,19.27
2022-09-27T16:21:01.478Z,19.20
2022-09-27T16:23:29.829Z,19.16
2022-09-27T16:25:58.219Z,19.09
2022-09-27T16:28:26.579Z,19.05
2022-09-27T16:30:55.024Z,19.01
2022-09-27T16:33:24.784Z,18.99
2022-09-27T16:35:53.163Z,18.98
2022-09-27T16:38:21.458Z,18.96
2022-09-27T16:40:49.859Z,18.92
2022-09-27T16:43:21.992Z,18.88
2022-09-27T16:45:50.323Z,18.86
2022-09-27T16:48:18.676Z,18.86
2022-09-27T16:51:05.801Z,18.86
2022-09-27T16:53:34.146Z,18.85
2022-09-27T16:56:02.859Z,18.81
2022-09-27T16:58:31.309Z,18.78
2022-09-27T17:01:00.098Z,18.71
2022-09-27T17:03:29.182Z,18.66
2022-09-27T17:06:04.142Z,18.60
2022-09-27T17:08:32.526Z,18.58
2022-09-27T17:11:01.303Z,18.55
2022-09-27T17:13:29.676Z,18.50
2022-09-27T17:15:58.465Z,18.46
2022-09-27T17:18:26.941Z,18.42
2022-09-27T17:21:00.549Z,18.36
2022-09-27T17:23:30.833Z,18.31
2022-09-27T17:26:05.688Z,18.28
2022-09-27T17:28:34.548Z,18.26
2022-09-27T17:31:10.560Z,18.21
2022-09-27T17:33:43.535Z,18.18
2022-09-27T17:36:15.362Z,18.15
2022-09-27T17:38:47.023Z,18.13
2022-09-27T17:41:17.645Z,18.12
2022-09-27T17:43:50.290Z,18.10
2022-09-27T17:46:21.042Z,18.10
2022-09-27T17:49:19.215Z,18.09
2022-09-27T17:51:50.228Z,18.05
2022-09-27T17:54:21.979Z,18.02
2022-09-27T17:56:51.933Z,18.00
2022-09-27T17:59:20.565Z,18.00
2022-09-27T18:01:49.708Z,17.99
2022-09-27T18:04:19.898Z,17.98
2022-09-27T18:06:49.543Z,17.97
2022-09-27T18:09:19.892Z,17.94
2022-09-27T18:11:48.435Z,17.94
2022-09-27T18:14:17.821Z,17.93
2022-09-27T18:16:46.396Z,17.90
2022-09-27T18:19:16.955Z,17.88
2022-09-27T18:21:45.427Z,17.86
2022-09-27T18:24:14.304Z,17.83
2022-09-27T18:26:48.884Z,17.78
2022-09-27T18:29:19.612Z,17.78
2022-09-27T18:31:49.208Z,17.76
2022-09-27T18:34:18.743Z,17.72
2022-09-27T18:36:48.223Z,17.71
2022-09-27T18:39:19.803Z,17.68
2022-09-27T18:41:50.138Z,17.68
2022-09-27T18:44:19.579Z,17.69
2022-09-27T18:46:49.014Z,17.70
2022-09-27T18:49:21.088Z,17.72
2022-09-27T18:51:52.472Z,17.72
2022-09-27T18:54:23.580Z,17.73
2022-09-27T18:56:53.875Z,17.73
2022-09-27T18:59:24.292Z,17.73
2022-09-27T19:01:53.313Z,17.73
2022-09-27T19:04:24.891Z,17.72
2022-09-27T19:06:56.200Z,17.72
2022-09-27T19:09:26.507Z,17.71
2022-09-27T19:11:56.635Z,17.70
2022-09-27T19:14:25.174Z,17.68
2022-09-27T19:16:56.055Z,17.68
2022-09-27T19:19:24.923Z,17.65
2022-09-27T19:21:53.477Z,17.62
2022-09-27T19:24:22.400Z,17.57
2022-09-27T19:26:54.017Z,17.52
2022-09-27T19:29:24.120Z,17.46
2022-09-27T19:31:52.851Z,17.39
2022-09-27T19:34:21.440Z,17.34
2022-09-27T19:36:50.098Z,17.28
2022-09-27T19:39:18.834Z,17.22
2022-09-27T19:41:47.325Z,17.17
2022-09-27T19:44:15.752Z,17.13
2022-09-27T19:46:46.321Z,17.10
2022-09-27T19:49:14.963Z,17.07
2022-09-27T19:51:43.644Z,17.04
2022-09-27T19:54:13.164Z,17.02
2022-09-27T19:56:41.891Z,16.99
2022-09-27T19:59:10.605Z,16.98
2022-09-27T20:01:41.155Z,16.96
2022-09-27T20:04:13.542Z,16.95
2022-09-27T20:06:42.430Z,16.92
2022-09-27T20:09:11.069Z,16.87
2022-09-27T20:11:39.593Z,16.81
2022-09-27T20:14:08.346Z,16.74
2022-09-27T20:16:41.099Z,16.69
2022-09-27T20:19:12.493Z,16.62
2022-09-27T20:21:40.979Z,16.57
2022-09-27T20:24:09.429Z,16.52
2022-09-27T20:26:38.128Z,16.46
2022-09-27T20:29:08.020Z,16.42
2022-09-27T20:31:39.698Z,16.40
2022-09-27T20:34:15.427Z,16.37
2022-09-27T20:36:45.278Z,16.37
2022-09-27T20:39:16.653Z,16.35
2022-09-27T20:41:47.529Z,16.33
2022-09-27T20:44:18.237Z,16.31
2022-09-27T20:46:48.323Z,16.31
2022-09-27T20:49:19.911Z,16.29
2022-09-27T20:51:49.547Z,16.28
2022-09-27T20:54:18.472Z,16.27
2022-09-27T20:56:49.141Z,16.25
2022-09-27T20:59:20.103Z,16.23
2022-09-27T21:01:50.905Z,16.22
2022-09-27T21:04:23.514Z,16.21
2022-09-27T21:06:53.143Z,16.20
2022-09-27T21:09:21.588Z,16.16
2022-09-27T21:11:51.916Z,16.16
2022-09-27T21:14:20.666Z,16.14
2022-09-27T21:16:49.208Z,16.14
2022-09-27T21:19:18.095Z,16.11
2022-09-27T21:21:48.071Z,16.10
2022-09-27T21:24:16.602Z,16.09
2022-09-27T21:26:45.222Z,16.08
2022-09-27T21:29:15.539Z,16.05
2022-09-27T21:31:44.153Z,16.04
2022-09-27T21:34:12.665Z,16.03
2022-09-27T21:36:40.989Z,16.03
2022-09-27T21:39:10.987Z,16.01
2022-09-27T21:41:39.959Z,16.00
2022-09-27T21:44:09.085Z,16.02
2022-09-27T21:46:41.806Z,16.01
2022-09-27T21:49:11.250Z,15.99
2022-09-27T21:51:41.442Z,16.01
2022-09-27T21:54:15.234Z,15.99
2022-09-27T21:56:44.962Z,15.94
2022-09-27T21:59:18.474Z,15.97
2022-09-27T22:01:47.795Z,15.98
2022-09-27T22:04:16.365Z,15.97
2022-09-27T22:06:45.058Z,15.99
2022-09-27T22:09:18.228Z,15.98
2022-09-27T22:11:47.924Z,15.99
2022-09-27T22:14:17.505Z,15.99
2022-09-27T22:16:45.905Z,15.99
2022-09-27T22:19:16.387Z,15.99
2022-09-27T22:21:44.869Z,16.02
2022-09-27T22:24:17.543Z,16.03
2022-09-27T22:26:49.398Z,16.05
2022-09-27T22:29:18.009Z,16.05
2022-09-27T22:31:46.828Z,16.06
2022-09-27T22:34:18.927Z,16.06
2022-09-27T22:36:47.686Z,16.06
2022-09-27T22:39:17.427Z,16.06
2022-09-27T22:41:45.898Z,16.03
2022-09-27T22:44:14.261Z,16.01
2022-09-27T22:46:42.728Z,16.01
2022-09-27T22:49:11.071Z,16.00
2022-09-27T22:51:39.426Z,15.99
2022-09-27T22:54:08.828Z,15.97
2022-09-27T22:56:38.542Z,15.95
2022-09-27T22:59:07.040Z,15.94
2022-09-27T23:01:36.816Z,15.94
2022-09-27T23:04:05.265Z,15.93
2022-09-27T23:06:33.649Z,15.93
2022-09-27T23:09:02.805Z,15.91
2022-09-27T23:11:31.818Z,15.91
2022-09-27T23:14:05.006Z,15.89
2022-09-27T23:16:36.338Z,15.88
2022-09-27T23:19:06.857Z,15.88
2022-09-27T23:21:35.531Z,15.85
2022-09-27T23:24:03.885Z,15.84
2022-09-27T23:26:32.182Z,15.82
2022-09-27T23:29:03.350Z,15.79
2022-09-27T23:31:33.766Z,15.75
2022-09-27T23:34:05.290Z,15.74
2022-09-27T23:36:33.698Z,15.72
2022-09-27T23:39:02.475Z,15.68
2022-09-27T23:41:31.099Z,15.65
2022-09-27T23:44:01.010Z,15.62
2022-09-27T23:46:29.509Z,15.59
2022-09-27T23:48:58.998Z,15.55
2022-09-27T23:51:27.493Z,15.52
2022-09-27T23:53:57.762Z,15.49
2022-09-27T23:56:26.528Z,15.44
2022-09-27T23:58:54.941Z,15.40
